sensor_id;sensor_type;location;lat;lon;timestamp;P1;durP1;ratioP1;P2;durP2;ratioP2
6093;SDS011;19964;42.060;24.700;2022-10-16T00:01:06;9.50;;;8.70;;
6093;SDS011;19964;42.060;24.700;2022-10-16T00:03:34;9.37;;;8.57;;
6093;SDS011;19964;42.060;24.700;2022-10-16T00:06:01;9.87;;;8.83;;
6093;SDS011;19964;42.060;24.700;2022-10-16T00:08:30;9.07;;;8.23;;
6093;SDS011;19964;42.060;24.700;2022-10-16T00:11:01;9.23;;;8.17;;
6093;SDS011;19964;42.060;24.700;2022-10-16T00:13:29;9.57;;;8.77;;
6093;SDS011;19964;42.060;24.700;2022-10-16T00:15:57;9.47;;;8.57;;
6093;SDS011;19964;42.060;24.700;2022-10-16T00:18:26;10.30;;;9.30;;
6093;SDS011;19964;42.060;24.700;2022-10-16T00:20:53;9.57;;;8.63;;
6093;SDS011;19964;42.060;24.700;2022-10-16T00:23:21;9.73;;;8.83;;
6093;SDS011;19964;42.060;24.700;2022-10-16T00:25:56;9.73;;;8.83;;
6093;SDS011;19964;42.060;24.700;2022-10-16T00:28:24;9.63;;;8.70;;
6093;SDS011;19964;42.060;24.700;2022-10-16T00:30:52;9.50;;;8.63;;
6093;SDS011;19964;42.060;24.700;2022-10-16T00:33:19;9.53;;;8.60;;
6093;SDS011;19964;42.060;24.700;2022-10-16T00:35:46;10.60;;;9.60;;
6093;SDS011;19964;42.060;24.700;2022-10-16T00:38:13;11.13;;;8.97;;
6093;SDS011;19964;42.060;24.700;2022-10-16T00:40:41;10.17;;;9.20;;
6093;SDS011;19964;42.060;24.700;2022-10-16T00:43:13;10.47;;;9.43;;
6093;SDS011;19964;42.060;24.700;2022-10-16T00:45:58;10.93;;;9.83;;
6093;SDS011;19964;42.060;24.700;2022-10-16T00:48:26;11.83;;;9.70;;
6093;SDS011;19964;42.060;24.700;2022-10-16T00:50:53;9.87;;;8.97;;
6093;SDS011;19964;42.060;24.700;2022-10-16T00:53:20;10.30;;;9.10;;
6093;SDS011;19964;42.060;24.700;2022-10-16T00:55:48;10.07;;;9.03;;
6093;SDS011;19964;42.060;24.700;2022-10-16T00:58:16;11.10;;;9.77;;
6093;SDS011;19964;42.060;24.700;2022-10-16T01:00:44;11.43;;;9.43;;
6093;SDS011;19964;42.060;24.700;2022-10-16T01:03:22;10.00;;;9.10;;
6093;SDS011;19964;42.060;24.700;2022-10-16T01:05:51;10.33;;;9.30;;
6093;SDS011;19964;42.060;24.700;2022-10-16T01:08:36;10.17;;;9.17;;
6093;SDS011;19964;42.060;24.700;2022-10-16T01:11:12;10.10;;;9.10;;
6093;SDS011;19964;42.060;24.700;2022-10-16T01:13:49;10.47;;;9.37;;
6093;SDS011;19964;42.060;24.700;2022-10-16T01:16:21;10.07;;;9.17;;
6093;SDS011;19964;42.060;24.700;2022-10-16T01:18:57;13.47;;;10.10;;
6093;SDS011;19964;42.060;24.700;2022-10-16T01:21:31;10.23;;;9.23;;
6093;SDS011;19964;42.060;24.700;2022-10-16T01:24:03;11.07;;;9.60;;
6093;SDS011;19964;42.060;24.700;2022-10-16T01:26:43;12.17;;;10.07;;
6093;SDS011;19964;42.060;24.700;2022-10-16T01:29:29;11.03;;;9.93;;
6093;SDS011;19964;42.060;24.700;2022-10-16T01:32:00;10.73;;;9.50;;
6093;SDS011;19964;42.060;24.700;2022-10-16T01:34:32;10.70;;;9.60;;
6093;SDS011;19964;42.060;24.700;2022-10-16T01:37:04;11.13;;;9.97;;
6093;SDS011;19964;42.060;24.700;2022-10-16T01:39:36;11.07;;;9.57;;
6093;SDS011;19964;42.060;24.700;2022-10-16T01:42:08;12.63;;;10.33;;
6093;SDS011;19964;42.060;24.700;2022-10-16T01:44:39;11.30;;;9.27;;
6093;SDS011;19964;42.060;24.700;2022-10-16T01:47:07;10.87;;;9.67;;
6093;SDS011;19964;42.060;24.700;2022-10-16T01:49:37;10.90;;;9.80;;
6093;SDS011;19964;42.060;24.700;2022-10-16T01:52:07;13.60;;;9.53;;
6093;SDS011;19964;42.060;24.700;2022-10-16T01:54:40;10.53;;;9.50;;
6093;SDS011;19964;42.060;24.700;2022-10-16T01:57:12;10.60;;;9.50;;
6093;SDS011;19964;42.060;24.700;2022-10-16T01:59:42;10.40;;;9.40;;
6093;SDS011;19964;42.060;24.700;2022-10-16T02:02:12;10.70;;;9.60;;
6093;SDS011;19964;42.060;24.700;2022-10-16T02:04:42;10.60;;;9.60;;
6093;SDS011;19964;42.060;24.700;2022-10-16T02:07:13;12.63;;;9.80;;
6093;SDS011;19964;42.060;24.700;2022-10-16T02:09:41;10.33;;;9.37;;
6093;SDS011;19964;42.060;24.700;2022-10-16T02:12:09;11.33;;;10.23;;
6093;SDS011;19964;42.060;24.700;2022-10-16T02:14:45;11.53;;;10.03;;
6093;SDS011;19964;42.060;24.700;2022-10-16T02:17:13;13.10;;;10.10;;
6093;SDS011;19964;42.060;24.700;2022-10-16T02:19:41;10.47;;;9.47;;
6093;SDS011;19964;42.060;24.700;2022-10-16T02:22:10;10.83;;;9.53;;
6093;SDS011;19964;42.060;24.700;2022-10-16T02:24:46;13.37;;;10.20;;
6093;SDS011;19964;42.060;24.700;2022-10-16T02:27:23;11.03;;;9.93;;
6093;SDS011;19964;42.060;24.700;2022-10-16T02:29:55;12.07;;;10.33;;
6093;SDS011;19964;42.060;24.700;2022-10-16T02:32:32;11.33;;;10.10;;
6093;SDS011;19964;42.060;24.700;2022-10-16T02:35:01;10.63;;;9.53;;
6093;SDS011;19964;42.060;24.700;2022-10-16T02:37:32;12.53;;;10.13;;
6093;SDS011;19964;42.060;24.700;2022-10-16T02:39:59;11.83;;;10.10;;
6093;SDS011;19964;42.060;24.700;2022-10-16T02:42:29;11.70;;;10.33;;
6093;SDS011;19964;42.060;24.700;2022-10-16T02:45:00;14.67;;;11.10;;
6093;SDS011;19964;42.060;24.700;2022-10-16T02:47:28;11.97;;;10.50;;
6093;SDS011;19964;42.060;24.700;2022-10-16T02:49:55;11.17;;;9.90;;
6093;SDS011;19964;42.060;24.700;2022-10-16T02:52:22;11.77;;;9.83;;
6093;SDS011;19964;42.060;24.700;2022-10-16T02:54:49;11.33;;;10.23;;
6093;SDS011;19964;42.060;24.700;2022-10-16T02:57:16;10.47;;;9.37;;
6093;SDS011;19964;42.060;24.700;2022-10-16T02:59:45;10.97;;;9.87;;
6093;SDS011;19964;42.060;24.700;2022-10-16T03:02:12;11.07;;;8.87;;
6093;SDS011;19964;42.060;24.700;2022-10-16T03:04:39;12.50;;;10.67;;
6093;SDS011;19964;42.060;24.700;2022-10-16T03:07:06;10.47;;;9.47;;
6093;SDS011;19964;42.060;24.700;2022-10-16T03:09:33;11.20;;;9.93;;
6093;SDS011;19964;42.060;24.700;2022-10-16T03:12:00;10.87;;;9.77;;
6093;SDS011;19964;42.060;24.700;2022-10-16T03:14:28;10.90;;;9.90;;
6093;SDS011;19964;42.060;24.700;2022-10-16T03:16:56;12.57;;;9.10;;
6093;SDS011;19964;42.060;24.700;2022-10-16T03:19:23;11.17;;;10.07;;
6093;SDS011;19964;42.060;24.700;2022-10-16T03:21:50;11.03;;;9.93;;
6093;SDS011;19964;42.060;24.700;2022-10-16T03:24:17;11.57;;;9.97;;
6093;SDS011;19964;42.060;24.700;2022-10-16T03:26:44;14.20;;;10.00;;
6093;SDS011;19964;42.060;24.700;2022-10-16T03:29:11;11.67;;;9.43;;
6093;SDS011;19964;42.060;24.700;2022-10-16T03:31:38;10.63;;;9.53;;
6093;SDS011;19964;42.060;24.700;2022-10-16T03:34:07;12.53;;;9.40;;
6093;SDS011;19964;42.060;24.700;2022-10-16T03:36:34;11.93;;;9.83;;
6093;SDS011;19964;42.060;24.700;2022-10-16T03:39:01;11.97;;;10.20;;
6093;SDS011;19964;42.060;24.700;2022-10-16T03:41:28;9.93;;;8.93;;
6093;SDS011;19964;42.060;24.700;2022-10-16T03:43:55;9.90;;;8.97;;
6093;SDS011;19964;42.060;24.700;2022-10-16T03:46:22;12.90;;;9.20;;
6093;SDS011;19964;42.060;24.700;2022-10-16T03:48:49;13.67;;;9.60;;
6093;SDS011;19964;42.060;24.700;2022-10-16T03:51:18;11.47;;;9.83;;
6093;SDS011;19964;42.060;24.700;2022-10-16T03:53:45;11.17;;;9.90;;
6093;SDS011;19964;42.060;24.700;2022-10-16T03:56:12;13.37;;;9.90;;
6093;SDS011;19964;42.060;24.700;2022-10-16T03:58:39;11.40;;;10.07;;
6093;SDS011;19964;42.060;24.700;2022-10-16T04:01:06;10.43;;;9.43;;
6093;SDS011;19964;42.060;24.700;2022-10-16T04:03:33;11.17;;;10.07;;
6093;SDS011;19964;42.060;24.700;2022-10-16T04:06:00;11.90;;;9.60;;
6093;SDS011;19964;42.060;24.700;2022-10-16T04:08:29;10.97;;;9.77;;
6093;SDS011;19964;42.060;24.700;2022-10-16T04:10:56;10.53;;;9.43;;
6093;SDS011;19964;42.060;24.700;2022-10-16T04:13:23;11.30;;;9.57;;
6093;SDS011;19964;42.060;24.700;2022-10-16T04:15:50;11.00;;;9.77;;
6093;SDS011;19964;42.060;24.700;2022-10-16T04:18:17;10.40;;;9.37;;
6093;SDS011;19964;42.060;24.700;2022-10-16T04:20:44;12.33;;;9.97;;
6093;SDS011;19964;42.060;24.700;2022-10-16T04:23:11;10.57;;;9.57;;
6093;SDS011;19964;42.060;24.700;2022-10-16T04:25:40;12.70;;;9.63;;
6093;SDS011;19964;42.060;24.700;2022-10-16T04:28:07;11.50;;;10.30;;
6093;SDS011;19964;42.060;24.700;2022-10-16T04:30:34;10.87;;;9.77;;
6093;SDS011;19964;42.060;24.700;2022-10-16T04:33:04;11.30;;;10.20;;
6093;SDS011;19964;42.060;24.700;2022-10-16T04:35:31;12.13;;;10.07;;
6093;SDS011;19964;42.060;24.700;2022-10-16T04:37:58;11.77;;;10.67;;
6093;SDS011;19964;42.060;24.700;2022-10-16T04:40:25;12.90;;;10.63;;
6093;SDS011;19964;42.060;24.700;2022-10-16T04:42:53;14.00;;;10.43;;
6093;SDS011;19964;42.060;24.700;2022-10-16T04:45:20;16.40;;;11.33;;
6093;SDS011;19964;42.060;24.700;2022-10-16T04:47:47;14.63;;;11.03;;
6093;SDS011;19964;42.060;24.700;2022-10-16T04:50:14;14.53;;;10.77;;
6093;SDS011;19964;42.060;24.700;2022-10-16T04:52:41;13.90;;;10.87;;
6093;SDS011;19964;42.060;24.700;2022-10-16T04:55:08;13.00;;;11.07;;
6093;SDS011;19964;42.060;24.700;2022-10-16T04:57:35;11.60;;;10.43;;
6093;SDS011;19964;42.060;24.700;2022-10-16T05:00:04;12.37;;;11.03;;
6093;SDS011;19964;42.060;24.700;2022-10-16T05:02:33;11.17;;;10.07;;
6093;SDS011;19964;42.060;24.700;2022-10-16T05:05:05;12.47;;;10.43;;
6093;SDS011;19964;42.060;24.700;2022-10-16T05:07:32;12.80;;;9.50;;
6093;SDS011;19964;42.060;24.700;2022-10-16T05:09:59;10.67;;;9.60;;
6093;SDS011;19964;42.060;24.700;2022-10-16T05:12:26;12.13;;;9.23;;
6093;SDS011;19964;42.060;24.700;2022-10-16T05:14:53;9.80;;;8.90;;
6093;SDS011;19964;42.060;24.700;2022-10-16T05:17:25;9.63;;;8.57;;
6093;SDS011;19964;42.060;24.700;2022-10-16T05:19:52;9.33;;;8.37;;
6093;SDS011;19964;42.060;24.700;2022-10-16T05:22:19;10.53;;;7.33;;
6093;SDS011;19964;42.060;24.700;2022-10-16T05:24:46;8.20;;;7.37;;
6093;SDS011;19964;42.060;24.700;2022-10-16T05:27:13;10.30;;;7.77;;
6093;SDS011;19964;42.060;24.700;2022-10-16T05:29:44;8.67;;;7.40;;
6093;SDS011;19964;42.060;24.700;2022-10-16T05:32:12;8.50;;;7.70;;
6093;SDS011;19964;42.060;24.700;2022-10-16T05:34:40;11.13;;;10.03;;
6093;SDS011;19964;42.060;24.700;2022-10-16T05:37:07;8.50;;;7.70;;
6093;SDS011;19964;42.060;24.700;2022-10-16T05:39:36;12.43;;;11.03;;
6093;SDS011;19964;42.060;24.700;2022-10-16T05:42:03;7.80;;;7.20;;
6093;SDS011;19964;42.060;24.700;2022-10-16T05:44:31;10.23;;;7.40;;
6093;SDS011;19964;42.060;24.700;2022-10-16T05:46:58;7.27;;;6.67;;
6093;SDS011;19964;42.060;24.700;2022-10-16T05:49:25;7.40;;;6.80;;
6093;SDS011;19964;42.060;24.700;2022-10-16T05:51:54;7.90;;;7.20;;
6093;SDS011;19964;42.060;24.700;2022-10-16T05:54:21;7.27;;;6.67;;
6093;SDS011;19964;42.060;24.700;2022-10-16T05:56:48;6.93;;;6.37;;
6093;SDS011;19964;42.060;24.700;2022-10-16T05:59:15;7.10;;;6.50;;
6093;SDS011;19964;42.060;24.700;2022-10-16T06:01:42;7.53;;;6.83;;
6093;SDS011;19964;42.060;24.700;2022-10-16T06:04:09;9.53;;;6.70;;
6093;SDS011;19964;42.060;24.700;2022-10-16T06:06:36;6.97;;;6.37;;
6093;SDS011;19964;42.060;24.700;2022-10-16T06:09:04;7.33;;;6.67;;
6093;SDS011;19964;42.060;24.700;2022-10-16T06:11:32;6.70;;;6.03;;
6093;SDS011;19964;42.060;24.700;2022-10-16T06:14:00;7.10;;;6.50;;
6093;SDS011;19964;42.060;24.700;2022-10-16T06:16:32;9.70;;;7.63;;
6093;SDS011;19964;42.060;24.700;2022-10-16T06:19:00;8.73;;;7.97;;
6093;SDS011;19964;42.060;24.700;2022-10-16T06:21:27;7.77;;;7.17;;
6093;SDS011;19964;42.060;24.700;2022-10-16T06:23:55;8.03;;;7.43;;
6093;SDS011;19964;42.060;24.700;2022-10-16T06:26:26;8.83;;;8.13;;
6093;SDS011;19964;42.060;24.700;2022-10-16T06:28:54;9.20;;;8.37;;
6093;SDS011;19964;42.060;24.700;2022-10-16T06:31:21;10.10;;;8.37;;
6093;SDS011;19964;42.060;24.700;2022-10-16T06:33:52;9.13;;;8.23;;
6093;SDS011;19964;42.060;24.700;2022-10-16T06:36:21;8.83;;;8.13;;
6093;SDS011;19964;42.060;24.700;2022-10-16T06:38:48;9.10;;;8.27;;
6093;SDS011;19964;42.060;24.700;2022-10-16T06:41:16;9.77;;;8.87;;
6093;SDS011;19964;42.060;24.700;2022-10-16T06:43:46;9.13;;;8.23;;
6093;SDS011;19964;42.060;24.700;2022-10-16T06:46:14;9.93;;;8.93;;
6093;SDS011;19964;42.060;24.700;2022-10-16T06:48:42;9.97;;;8.57;;
6093;SDS011;19964;42.060;24.700;2022-10-16T06:51:10;9.87;;;8.87;;
6093;SDS011;19964;42.060;24.700;2022-10-16T06:53:38;11.03;;;8.83;;
6093;SDS011;19964;42.060;24.700;2022-10-16T06:56:10;9.70;;;8.80;;
6093;SDS011;19964;42.060;24.700;2022-10-16T06:58:39;11.83;;;8.30;;
6093;SDS011;19964;42.060;24.700;2022-10-16T07:01:08;11.73;;;8.47;;
6093;SDS011;19964;42.060;24.700;2022-10-16T07:03:36;9.87;;;8.93;;
6093;SDS011;19964;42.060;24.700;2022-10-16T07:06:04;9.20;;;8.40;;
6093;SDS011;19964;42.060;24.700;2022-10-16T07:08:33;10.13;;;9.23;;
6093;SDS011;19964;42.060;24.700;2022-10-16T07:11:00;13.03;;;10.37;;
6093;SDS011;19964;42.060;24.700;2022-10-16T07:13:28;12.57;;;10.43;;
6093;SDS011;19964;42.060;24.700;2022-10-16T07:15:55;12.00;;;10.33;;
6093;SDS011;19964;42.060;24.700;2022-10-16T07:18:23;12.60;;;10.07;;
6093;SDS011;19964;42.060;24.700;2022-10-16T07:20:52;11.67;;;9.90;;
6093;SDS011;19964;42.060;24.700;2022-10-16T07:23:19;11.40;;;9.40;;
6093;SDS011;19964;42.060;24.700;2022-10-16T07:25:52;19.63;;;9.87;;
6093;SDS011;19964;42.060;24.700;2022-10-16T07:28:20;9.73;;;8.73;;
6093;SDS011;19964;42.060;24.700;2022-10-16T07:30:47;11.13;;;8.93;;
6093;SDS011;19964;42.060;24.700;2022-10-16T07:33:14;9.40;;;8.60;;
6093;SDS011;19964;42.060;24.700;2022-10-16T07:35:48;10.00;;;8.70;;
6093;SDS011;19964;42.060;24.700;2022-10-16T07:38:16;8.93;;;8.17;;
6093;SDS011;19964;42.060;24.700;2022-10-16T07:40:43;9.10;;;8.20;;
6093;SDS011;19964;42.060;24.700;2022-10-16T07:43:11;9.37;;;8.40;;
6093;SDS011;19964;42.060;24.700;2022-10-16T07:45:45;9.37;;;8.57;;
6093;SDS011;19964;42.060;24.700;2022-10-16T07:48:13;10.73;;;9.60;;
6093;SDS011;19964;42.060;24.700;2022-10-16T07:50:40;10.27;;;9.27;;
6093;SDS011;19964;42.060;24.700;2022-10-16T07:53:09;10.40;;;9.33;;
6093;SDS011;19964;42.060;24.700;2022-10-16T07:55:36;10.63;;;9.60;;
6093;SDS011;19964;42.060;24.700;2022-10-16T07:58:04;11.30;;;10.10;;
6093;SDS011;19964;42.060;24.700;2022-10-16T08:00:31;12.70;;;10.40;;
6093;SDS011;19964;42.060;24.700;2022-10-16T08:02:58;11.50;;;10.37;;
6093;SDS011;19964;42.060;24.700;2022-10-16T08:05:25;10.90;;;9.90;;
6093;SDS011;19964;42.060;24.700;2022-10-16T08:07:53;10.50;;;9.40;;
6093;SDS011;19964;42.060;24.700;2022-10-16T08:10:21;10.60;;;9.60;;
6093;SDS011;19964;42.060;24.700;2022-10-16T08:12:50;10.80;;;9.80;;
6093;SDS011;19964;42.060;24.700;2022-10-16T08:15:17;12.03;;;9.03;;
6093;SDS011;19964;42.060;24.700;2022-10-16T08:17:44;10.20;;;9.30;;
6093;SDS011;19964;42.060;24.700;2022-10-16T08:20:11;9.40;;;8.60;;
6093;SDS011;19964;42.060;24.700;2022-10-16T08:22:38;11.20;;;7.83;;
6093;SDS011;19964;42.060;24.700;2022-10-16T08:25:05;9.07;;;8.27;;
6093;SDS011;19964;42.060;24.700;2022-10-16T08:27:34;9.70;;;8.77;;
6093;SDS011;19964;42.060;24.700;2022-10-16T08:30:01;11.03;;;8.50;;
6093;SDS011;19964;42.060;24.700;2022-10-16T08:32:27;10.30;;;9.07;;
6093;SDS011;19964;42.060;24.700;2022-10-16T08:34:54;9.07;;;8.17;;
6093;SDS011;19964;42.060;24.700;2022-10-16T08:37:21;9.77;;;8.87;;
6093;SDS011;19964;42.060;24.700;2022-10-16T08:39:48;9.50;;;8.60;;
6093;SDS011;19964;42.060;24.700;2022-10-16T08:42:18;9.30;;;8.30;;
6093;SDS011;19964;42.060;24.700;2022-10-16T08:45:09;11.30;;;8.70;;
6093;SDS011;19964;42.060;24.700;2022-10-16T08:47:56;10.47;;;8.57;;
6093;SDS011;19964;42.060;24.700;2022-10-16T08:50:31;10.23;;;9.10;;
6093;SDS011;19964;42.060;24.700;2022-10-16T08:53:03;9.60;;;8.17;;
6093;SDS011;19964;42.060;24.700;2022-10-16T08:55:32;8.90;;;8.00;;
6093;SDS011;19964;42.060;24.700;2022-10-16T08:58:07;8.93;;;8.07;;
6093;SDS011;19964;42.060;24.700;2022-10-16T09:00:40;8.20;;;7.53;;
6093;SDS011;19964;42.060;24.700;2022-10-16T09:03:12;8.37;;;7.57;;
6093;SDS011;19964;42.060;24.700;2022-10-16T09:06:01;11.07;;;8.07;;
6093;SDS011;19964;42.060;24.700;2022-10-16T09:08:42;10.37;;;7.80;;
6093;SDS011;19964;42.060;24.700;2022-10-16T09:11:19;8.33;;;7.60;;
6093;SDS011;19964;42.060;24.700;2022-10-16T09:13:58;8.70;;;7.43;;
6093;SDS011;19964;42.060;24.700;2022-10-16T09:16:32;11.27;;;7.60;;
6093;SDS011;19964;42.060;24.700;2022-10-16T09:19:09;9.60;;;5.30;;
6093;SDS011;19964;42.060;24.700;2022-10-16T09:21:45;8.83;;;8.00;;
6093;SDS011;19964;42.060;24.700;2022-10-16T09:24:14;8.23;;;7.53;;
6093;SDS011;19964;42.060;24.700;2022-10-16T09:26:49;8.97;;;7.23;;
6093;SDS011;19964;42.060;24.700;2022-10-16T09:29:17;9.13;;;8.17;;
6093;SDS011;19964;42.060;24.700;2022-10-16T09:31:47;8.97;;;8.07;;
6093;SDS011;19964;42.060;24.700;2022-10-16T09:34:16;8.80;;;7.87;;
6093;SDS011;19964;42.060;24.700;2022-10-16T09:36:56;8.20;;;7.50;;
6093;SDS011;19964;42.060;24.700;2022-10-16T09:39:25;11.23;;;8.17;;
6093;SDS011;19964;42.060;24.700;2022-10-16T09:41:52;8.07;;;7.27;;
6093;SDS011;19964;42.060;24.700;2022-10-16T09:44:21;7.83;;;7.13;;
6093;SDS011;19964;42.060;24.700;2022-10-16T09:47:02;7.73;;;7.03;;
6093;SDS011;19964;42.060;24.700;2022-10-16T09:49:29;8.37;;;6.83;;
6093;SDS011;19964;42.060;24.700;2022-10-16T09:52:03;11.07;;;7.30;;
6093;SDS011;19964;42.060;24.700;2022-10-16T09:54:31;8.80;;;7.33;;
6093;SDS011;19964;42.060;24.700;2022-10-16T09:57:05;8.13;;;6.57;;
6093;SDS011;19964;42.060;24.700;2022-10-16T09:59:32;11.80;;;6.63;;
6093;SDS011;19964;42.060;24.700;2022-10-16T10:02:03;7.70;;;7.10;;
6093;SDS011;19964;42.060;24.700;2022-10-16T10:04:38;8.27;;;7.33;;
6093;SDS011;19964;42.060;24.700;2022-10-16T10:07:15;8.17;;;7.17;;
6093;SDS011;19964;42.060;24.700;2022-10-16T10:09:45;9.67;;;7.37;;
6093;SDS011;19964;42.060;24.700;2022-10-16T10:12:17;8.80;;;6.63;;
6093;SDS011;19964;42.060;24.700;2022-10-16T10:14:47;7.53;;;6.87;;
6093;SDS011;19964;42.060;24.700;2022-10-16T10:17:17;12.23;;;6.60;;
6093;SDS011;19964;42.060;24.700;2022-10-16T10:19:50;12.53;;;7.23;;
6093;SDS011;19964;42.060;24.700;2022-10-16T10:22:21;8.03;;;7.20;;
6093;SDS011;19964;42.060;24.700;2022-10-16T10:24:57;9.97;;;6.97;;
6093;SDS011;19964;42.060;24.700;2022-10-16T10:27:56;10.10;;;7.10;;
6093;SDS011;19964;42.060;24.700;2022-10-16T10:30:32;8.37;;;7.57;;
6093;SDS011;19964;42.060;24.700;2022-10-16T10:33:15;7.93;;;7.10;;
6093;SDS011;19964;42.060;24.700;2022-10-16T10:35:51;7.63;;;6.77;;
6093;SDS011;19964;42.060;24.700;2022-10-16T10:38:30;8.00;;;6.63;;
6093;SDS011;19964;42.060;24.700;2022-10-16T10:41:10;12.53;;;6.60;;
6093;SDS011;19964;42.060;24.700;2022-10-16T10:43:55;7.67;;;7.00;;
6093;SDS011;19964;42.060;24.700;2022-10-16T10:46:32;9.87;;;6.50;;
6093;SDS011;19964;42.060;24.700;2022-10-16T10:49:10;6.80;;;6.30;;
6093;SDS011;19964;42.060;24.700;2022-10-16T10:51:49;9.33;;;6.20;;
6093;SDS011;19964;42.060;24.700;2022-10-16T10:54:26;6.77;;;6.17;;
6093;SDS011;19964;42.060;24.700;2022-10-16T10:57:00;7.37;;;6.43;;
6093;SDS011;19964;42.060;24.700;2022-10-16T11:02:25;6.03;;;5.43;;
6093;SDS011;19964;42.060;24.700;2022-10-16T11:08:06;12.40;;;6.13;;
6093;SDS011;19964;42.060;24.700;2022-10-16T11:10:40;6.30;;;5.80;;
6093;SDS011;19964;42.060;24.700;2022-10-16T11:13:23;8.37;;;5.57;;
6093;SDS011;19964;42.060;24.700;2022-10-16T11:15:58;6.50;;;5.90;;
6093;SDS011;19964;42.060;24.700;2022-10-16T11:18:30;7.43;;;5.67;;
6093;SDS011;19964;42.060;24.700;2022-10-16T11:21:09;6.17;;;5.57;;
6093;SDS011;19964;42.060;24.700;2022-10-16T11:23:45;6.67;;;5.47;;
6093;SDS011;19964;42.060;24.700;2022-10-16T11:26:18;6.57;;;5.83;;
6093;SDS011;19964;42.060;24.700;2022-10-16T11:28:48;6.03;;;5.53;;
6093;SDS011;19964;42.060;24.700;2022-10-16T11:31:19;5.70;;;5.20;;
6093;SDS011;19964;42.060;24.700;2022-10-16T11:33:54;5.50;;;5.10;;
6093;SDS011;19964;42.060;24.700;2022-10-16T11:36:32;6.93;;;5.40;;
6093;SDS011;19964;42.060;24.700;2022-10-16T11:39:08;6.33;;;5.80;;
6093;SDS011;19964;42.060;24.700;2022-10-16T11:41:46;6.20;;;5.53;;
6093;SDS011;19964;42.060;24.700;2022-10-16T11:44:31;6.23;;;5.40;;
6093;SDS011;19964;42.060;24.700;2022-10-16T11:47:10;6.87;;;6.07;;
6093;SDS011;19964;42.060;24.700;2022-10-16T11:49:46;6.10;;;5.50;;
6093;SDS011;19964;42.060;24.700;2022-10-16T11:52:19;6.13;;;5.63;;
6093;SDS011;19964;42.060;24.700;2022-10-16T11:54:53;5.23;;;4.93;;
6093;SDS011;19964;42.060;24.700;2022-10-16T11:57:26;6.93;;;5.47;;
6093;SDS011;19964;42.060;24.700;2022-10-16T11:59:57;5.63;;;5.20;;
6093;SDS011;19964;42.060;24.700;2022-10-16T12:02:33;6.33;;;5.27;;
6093;SDS011;19964;42.060;24.700;2022-10-16T12:05:11;5.40;;;5.00;;
6093;SDS011;19964;42.060;24.700;2022-10-16T12:07:50;5.40;;;4.90;;
6093;SDS011;19964;42.060;24.700;2022-10-16T12:10:24;6.43;;;5.10;;
6093;SDS011;19964;42.060;24.700;2022-10-16T12:12:57;5.33;;;4.87;;
6093;SDS011;19964;42.060;24.700;2022-10-16T12:15:25;5.50;;;5.00;;
6093;SDS011;19964;42.060;24.700;2022-10-16T12:17:54;6.57;;;5.23;;
6093;SDS011;19964;42.060;24.700;2022-10-16T12:20:23;6.73;;;5.53;;
6093;SDS011;19964;42.060;24.700;2022-10-16T12:22:59;6.97;;;4.80;;
6093;SDS011;19964;42.060;24.700;2022-10-16T12:25:29;5.30;;;4.90;;
6093;SDS011;19964;42.060;24.700;2022-10-16T12:27:59;7.07;;;5.50;;
6093;SDS011;19964;42.060;24.700;2022-10-16T12:30:28;5.37;;;4.83;;
6093;SDS011;19964;42.060;24.700;2022-10-16T12:32:57;5.80;;;5.40;;
6093;SDS011;19964;42.060;24.700;2022-10-16T12:35:29;5.90;;;5.30;;
6093;SDS011;19964;42.060;24.700;2022-10-16T12:38:06;6.33;;;5.50;;
6093;SDS011;19964;42.060;24.700;2022-10-16T12:40:39;5.17;;;4.70;;
6093;SDS011;19964;42.060;24.700;2022-10-16T12:43:34;5.87;;;5.37;;
6093;SDS011;19964;42.060;24.700;2022-10-16T12:46:20;6.57;;;5.03;;
6093;SDS011;19964;42.060;24.700;2022-10-16T12:48:50;6.00;;;5.40;;
6093;SDS011;19964;42.060;24.700;2022-10-16T12:51:24;5.63;;;5.13;;
6093;SDS011;19964;42.060;24.700;2022-10-16T12:54:00;5.30;;;4.87;;
6093;SDS011;19964;42.060;24.700;2022-10-16T12:56:31;5.80;;;5.30;;
6093;SDS011;19964;42.060;24.700;2022-10-16T12:59:09;6.30;;;5.10;;
6093;SDS011;19964;42.060;24.700;2022-10-16T13:01:52;8.10;;;5.40;;
6093;SDS011;19964;42.060;24.700;2022-10-16T13:07:43;5.60;;;5.13;;
6093;SDS011;19964;42.060;24.700;2022-10-16T13:10:22;5.90;;;5.40;;
6093;SDS011;19964;42.060;24.700;2022-10-16T13:13:05;5.30;;;4.87;;
6093;SDS011;19964;42.060;24.700;2022-10-16T13:15:57;6.03;;;5.43;;
6093;SDS011;19964;42.060;24.700;2022-10-16T13:18:38;11.63;;;5.93;;
6093;SDS011;19964;42.060;24.700;2022-10-16T13:21:26;7.83;;;6.27;;
6093;SDS011;19964;42.060;24.700;2022-10-16T13:24:08;6.93;;;5.50;;
6093;SDS011;19964;42.060;24.700;2022-10-16T13:26:46;6.47;;;5.70;;
6093;SDS011;19964;42.060;24.700;2022-10-16T13:29:19;5.73;;;5.33;;
6093;SDS011;19964;42.060;24.700;2022-10-16T13:31:46;6.40;;;5.80;;
6093;SDS011;19964;42.060;24.700;2022-10-16T13:34:14;6.33;;;5.47;;
6093;SDS011;19964;42.060;24.700;2022-10-16T13:36:46;6.13;;;5.53;;
6093;SDS011;19964;42.060;24.700;2022-10-16T13:39:16;6.40;;;5.80;;
6093;SDS011;19964;42.060;24.700;2022-10-16T13:42:00;10.13;;;6.37;;
6093;SDS011;19964;42.060;24.700;2022-10-16T13:44:35;8.13;;;6.13;;
6093;SDS011;19964;42.060;24.700;2022-10-16T13:47:15;9.53;;;6.30;;
6093;SDS011;19964;42.060;24.700;2022-10-16T13:49:46;8.73;;;6.43;;
6093;SDS011;19964;42.060;24.700;2022-10-16T13:52:17;7.50;;;6.10;;
6093;SDS011;19964;42.060;24.700;2022-10-16T13:54:45;6.70;;;6.10;;
6093;SDS011;19964;42.060;24.700;2022-10-16T13:57:14;6.40;;;5.70;;
6093;SDS011;19964;42.060;24.700;2022-10-16T13:59:43;7.73;;;6.27;;
6093;SDS011;19964;42.060;24.700;2022-10-16T14:02:15;6.67;;;6.07;;
6093;SDS011;19964;42.060;24.700;2022-10-16T14:04:48;9.30;;;6.33;;
6093;SDS011;19964;42.060;24.700;2022-10-16T14:07:18;7.83;;;5.70;;
6093;SDS011;19964;42.060;24.700;2022-10-16T14:09:49;6.83;;;6.23;;
6093;SDS011;19964;42.060;24.700;2022-10-16T14:12:19;6.90;;;6.30;;
6093;SDS011;19964;42.060;24.700;2022-10-16T14:14:48;7.67;;;5.97;;
6093;SDS011;19964;42.060;24.700;2022-10-16T14:17:18;7.07;;;5.60;;
6093;SDS011;19964;42.060;24.700;2022-10-16T14:19:49;10.10;;;5.87;;
6093;SDS011;19964;42.060;24.700;2022-10-16T14:22:30;6.40;;;5.90;;
6093;SDS011;19964;42.060;24.700;2022-10-16T14:25:00;9.23;;;5.93;;
6093;SDS011;19964;42.060;24.700;2022-10-16T14:27:31;7.37;;;5.70;;
6093;SDS011;19964;42.060;24.700;2022-10-16T14:32:57;7.93;;;6.07;;
6093;SDS011;19964;42.060;24.700;2022-10-16T14:35:28;6.33;;;5.73;;
6093;SDS011;19964;42.060;24.700;2022-10-16T14:37:57;6.13;;;5.53;;
6093;SDS011;19964;42.060;24.700;2022-10-16T14:40:27;6.67;;;6.00;;
6093;SDS011;19964;42.060;24.700;2022-10-16T14:42:56;7.57;;;6.87;;
6093;SDS011;19964;42.060;24.700;2022-10-16T14:45:24;8.13;;;7.27;;
6093;SDS011;19964;42.060;24.700;2022-10-16T14:47:57;10.33;;;7.63;;
6093;SDS011;19964;42.060;24.700;2022-10-16T14:50:26;8.80;;;6.87;;
6093;SDS011;19964;42.060;24.700;2022-10-16T14:52:53;11.33;;;7.73;;
6093;SDS011;19964;42.060;24.700;2022-10-16T14:55:21;18.30;;;10.20;;
6093;SDS011;19964;42.060;24.700;2022-10-16T14:57:48;8.93;;;7.90;;
6093;SDS011;19964;42.060;24.700;2022-10-16T15:00:18;11.03;;;8.20;;
6093;SDS011;19964;42.060;24.700;2022-10-16T15:02:48;9.63;;;7.37;;
6093;SDS011;19964;42.060;24.700;2022-10-16T15:05:17;8.30;;;7.50;;
6093;SDS011;19964;42.060;24.700;2022-10-16T15:07:46;9.50;;;7.47;;
6093;SDS011;19964;42.060;24.700;2022-10-16T15:10:14;10.20;;;7.73;;
6093;SDS011;19964;42.060;24.700;2022-10-16T15:12:42;8.73;;;7.77;;
6093;SDS011;19964;42.060;24.700;2022-10-16T15:18:00;8.90;;;7.13;;